Pulaski, GA (30451)

6:00 AM EDT on September 20, 2014 (GMT -0400)
RAWS METTER GA US | Change Station
CLOSE
Current Station
Personal Weather Station
Location: Metter, GA
Elevation: 198 ft
Nearby Weather Stations

Elev 198 ft 32.39 °N, 82.04 °W | Updated 57 minutes ago

Overcast
Overcast
69 °F
Feels Like 69 °F
N
3
Wind Variable Wind from ENE
Gusts 11.0 mph

Today
High -- | Low -- °F
--% Chance of Precip.
Yesterday
High -- | Low -- °F
Precip. -- in
7:14 AM 7:27 PM
Waning Crescent, 13% visible
Pressure 30.05 in
Visibility 10.0 miles
Clouds Overcast 600 ft
Dew Point 67 °F
Humidity 93%
Rainfall 1.05 in
Snow Depth Not available.
UV 0 out of 12
Pollen 7.40 out of 12
Air Quality Not available.
Flu Activity Not available.
METAR KTBR 200935Z AUTO 05005KT 10SM OVC006 21/21 A3005 RMK AO2 T02080208

More Conditions Fewer Conditions

Pressure 30.05 in
Visibility 10.0 miles
Clouds Overcast 600 ft
Dew Point 67 °F
Humidity 93%
Rainfall 1.05 in
Snow Depth Not available.
UV 0 out of 12
Pollen 7.40 out of 12
Air Quality Not available.
Flu Activity Not available.
METAR KTBR 200935Z AUTO 05005KT 10SM OVC006 21/21 A3005 RMK AO2 T02080208

More Conditions Fewer Conditions

10-Day Weather Forecast

Almanac

Astronomy

Sep. 20, 2014 Rise Set
Actual Time 7:14 AM EDT 7:27 PM EDT
Civil Twilight 6:50 AM EDT 7:51 PM EDT
Nautical Twilight 6:21 AM EDT 8:20 PM EDT
Astronomical Twilight 5:52 AM EDT 8:49 PM EDT
Moon 4:01 AM EDT 5:22 PM EDT
Length of Visible Light 13h 01m
Length of Day
12h 12m
Tomorrow will be 1m 58s shorter.
Waning Crescent, 13% of the Moon is Illuminated
Today
Waning Crescent
Sep 24
New
Oct 1
First Quarter
Oct 8
Full
Oct 15
Last Quarter

Today's Extremes

State Highs State Lows

Community

WunderPhotos

Upload Photos

1,754,820 photos uploaded!

WunderBlogs® & News

Nearby

Snow Depth

Station Depth Elevation
No new snow has been reported.

Earthquake Activity

City Distance Mag. Time & Date
New Ellenton, South Carolina 74 miles 2.6 4:38 PM EDT
2014-09-19
Minimum magnitude displayed is 2.5.

Coastal Water Temperatures

Place Temperature
No Stations Reporting

Nearby Weather Stations